createdAt,value
2023-12-08T00:02:01.399Z,100741.22
2023-12-08T00:05:04.482Z,100736.31
2023-12-08T00:08:06.278Z,100737.16
2023-12-08T00:11:08.927Z,100742.72
2023-12-08T00:14:10.774Z,100751.91
2023-12-08T00:17:12.692Z,100764.22
2023-12-08T00:20:14.693Z,100771.13
2023-12-08T00:23:16.826Z,100762.25
2023-12-08T00:26:18.715Z,100767.97
2023-12-08T00:29:20.652Z,100766.16
2023-12-08T00:32:22.450Z,100769.13
2023-12-08T00:35:24.270Z,100772.31
2023-12-08T00:38:26.029Z,100776.06
2023-12-08T00:41:28.897Z,100787.28
2023-12-08T00:44:30.799Z,100784.59
2023-12-08T00:47:32.750Z,100786.88
2023-12-08T00:50:34.670Z,100785.69
2023-12-08T00:53:36.472Z,100784.69
2023-12-08T00:56:38.270Z,100785.25
2023-12-08T00:59:40.079Z,100774.72
2023-12-08T01:02:41.933Z,100787.41
2023-12-08T01:05:43.785Z,100787.56
2023-12-08T01:08:45.613Z,100781.63
2023-12-08T01:11:47.461Z,100773.00
2023-12-08T01:14:49.363Z,100781.91
2023-12-08T01:17:51.276Z,100795.53
2023-12-08T01:20:55.226Z,100786.94
2023-12-08T01:23:57.000Z,100789.84
2023-12-08T01:26:58.833Z,100784.22
2023-12-08T01:30:00.854Z,100789.94
2023-12-08T01:33:04.674Z,100788.00
2023-12-08T01:36:38.586Z,100788.69
2023-12-08T01:39:28.713Z,100784.66
2023-12-08T01:42:30.576Z,100786.25
2023-12-08T01:45:32.335Z,100782.13
2023-12-08T01:48:34.283Z,100783.78
2023-12-08T01:51:36.230Z,100785.09
2023-12-08T01:54:38.121Z,100779.72
2023-12-08T01:57:40.023Z,100775.47
2023-12-08T02:00:46.882Z,100780.19
2023-12-08T02:03:52.160Z,100772.06
2023-12-08T02:06:55.984Z,100776.50
2023-12-08T02:09:57.800Z,100771.25
2023-12-08T02:13:00.719Z,100766.09
2023-12-08T02:16:25.513Z,100769.03
2023-12-08T02:19:28.438Z,100763.06
2023-12-08T02:22:30.307Z,100767.53
2023-12-08T02:25:32.127Z,100757.09
2023-12-08T02:28:33.918Z,100752.06
2023-12-08T02:31:44.977Z,100762.00
2023-12-08T02:34:50.058Z,100772.28
2023-12-08T02:37:56.169Z,100767.44
2023-12-08T02:40:58.457Z,100768.91
2023-12-08T02:44:00.304Z,100769.97
2023-12-08T02:47:02.171Z,100769.03
2023-12-08T02:50:04.620Z,100769.44
2023-12-08T02:53:06.402Z,100772.88
2023-12-08T02:56:08.584Z,100767.97
2023-12-08T02:59:10.336Z,100765.53
2023-12-08T03:02:12.178Z,100761.47
2023-12-08T03:05:14.071Z,100771.50
2023-12-08T03:08:15.886Z,100772.63
2023-12-08T03:11:17.689Z,100778.72
2023-12-08T03:14:19.424Z,100777.19
2023-12-08T03:17:21.219Z,100779.78
2023-12-08T03:20:23.017Z,100768.75
2023-12-08T03:23:24.826Z,100774.22
2023-12-08T03:26:26.649Z,100776.88
2023-12-08T03:29:28.380Z,100775.66
2023-12-08T03:32:30.353Z,100776.88
2023-12-08T03:35:32.143Z,100782.78
2023-12-08T03:38:33.979Z,100784.09
2023-12-08T03:41:35.841Z,100783.41
2023-12-08T03:44:37.706Z,100784.56
2023-12-08T03:47:39.784Z,100782.41
2023-12-08T03:50:41.742Z,100773.47
2023-12-08T03:53:43.604Z,100778.31
2023-12-08T03:56:45.469Z,100766.09
2023-12-08T03:59:47.365Z,100770.28
2023-12-08T04:02:49.714Z,100759.63
2023-12-08T04:05:52.100Z,100764.13
2023-12-08T04:08:54.050Z,100768.69
2023-12-08T04:11:55.953Z,100766.97
2023-12-08T04:14:57.776Z,100757.69
2023-12-08T04:18:00.218Z,100751.94
2023-12-08T04:21:02.206Z,100747.47
2023-12-08T04:24:04.167Z,100744.44
2023-12-08T04:27:06.286Z,100736.88
2023-12-08T04:30:08.700Z,100739.84
2023-12-08T04:33:10.848Z,100729.47
2023-12-08T04:36:12.855Z,100733.88
2023-12-08T04:39:14.771Z,100731.66
2023-12-08T04:42:17.052Z,100731.94
2023-12-08T04:45:18.913Z,100729.63
2023-12-08T04:48:20.874Z,100721.38
2023-12-08T04:51:22.724Z,100736.44
2023-12-08T04:54:24.654Z,100724.22
2023-12-08T04:57:26.613Z,100726.69
2023-12-08T05:00:28.887Z,100721.44
2023-12-08T05:03:30.698Z,100729.19
2023-12-08T05:06:32.837Z,100725.53
2023-12-08T05:09:34.743Z,100725.41
2023-12-08T05:12:36.543Z,100730.25
2023-12-08T05:15:38.410Z,100736.53
2023-12-08T05:18:40.739Z,100734.94
2023-12-08T05:21:42.676Z,100748.47
2023-12-08T05:24:44.426Z,100743.44
2023-12-08T05:27:46.725Z,100757.81
2023-12-08T05:30:48.721Z,100754.66
2023-12-08T05:33:50.618Z,100751.06
2023-12-08T05:36:52.454Z,100750.28
2023-12-08T05:39:54.520Z,100754.00
2023-12-08T05:42:56.272Z,100743.91
2023-12-08T05:45:58.107Z,100748.63
2023-12-08T05:49:00.047Z,100754.00
2023-12-08T05:52:01.930Z,100760.63
2023-12-08T05:55:04.179Z,100754.81
2023-12-08T05:58:06.016Z,100754.47
2023-12-08T06:01:07.880Z,100756.25
2023-12-08T06:04:09.642Z,100749.81
2023-12-08T06:07:12.361Z,100747.28
2023-12-08T06:10:14.372Z,100749.47
2023-12-08T06:13:16.146Z,100747.75
2023-12-08T06:16:18.833Z,100751.53
2023-12-08T06:19:20.926Z,100758.97
2023-12-08T06:22:22.810Z,100769.88
2023-12-08T06:25:24.704Z,100769.69
2023-12-08T06:28:26.435Z,100779.47
2023-12-08T06:31:28.230Z,100773.78
2023-12-08T06:34:30.311Z,100773.56
2023-12-08T06:37:32.202Z,100776.66
2023-12-08T06:40:34.057Z,100776.72
2023-12-08T06:43:35.985Z,100777.66
2023-12-08T06:46:37.796Z,100779.03
2023-12-08T06:49:39.762Z,100779.25
2023-12-08T06:52:41.683Z,100778.25
2023-12-08T06:55:44.557Z,100776.94
2023-12-08T06:58:46.294Z,100778.22
2023-12-08T07:01:48.092Z,100778.16
2023-12-08T07:04:50.021Z,100773.28
2023-12-08T07:07:52.100Z,100767.81
2023-12-08T07:10:54.046Z,100781.81
2023-12-08T07:13:55.844Z,100781.47
2023-12-08T07:16:57.668Z,100788.03
2023-12-08T07:19:59.536Z,100786.94
2023-12-08T07:23:02.622Z,100786.88
2023-12-08T07:26:06.012Z,100800.13
2023-12-08T07:29:07.810Z,100806.22
2023-12-08T07:32:09.712Z,100793.88
2023-12-08T07:35:11.497Z,100789.09
2023-12-08T07:38:13.368Z,100786.28
2023-12-08T07:41:15.252Z,100784.94
2023-12-08T07:44:17.017Z,100786.16
2023-12-08T07:47:18.878Z,100773.09
2023-12-08T07:50:20.701Z,100764.94
2023-12-08T07:53:23.012Z,100772.44
2023-12-08T07:56:24.848Z,100769.44
2023-12-08T07:59:27.108Z,100787.72
2023-12-08T08:02:29.129Z,100783.47
2023-12-08T08:05:31.088Z,100791.44
2023-12-08T08:08:34.423Z,100796.16
2023-12-08T08:11:36.417Z,100795.69
2023-12-08T08:14:39.924Z,100789.91
2023-12-08T08:17:41.959Z,100791.19
2023-12-08T08:20:43.817Z,100786.16
2023-12-08T08:23:45.675Z,100783.22
2023-12-08T08:26:48.218Z,100791.03
2023-12-08T08:29:50.103Z,100786.94
2023-12-08T08:32:52.029Z,100785.28
2023-12-08T08:35:53.874Z,100788.66
2023-12-08T08:38:55.717Z,100786.47
2023-12-08T08:41:57.705Z,100789.00
2023-12-08T08:44:59.506Z,100786.28
2023-12-08T08:48:01.597Z,100781.75
2023-12-08T08:51:03.752Z,100782.88
2023-12-08T08:54:06.659Z,100772.19
2023-12-08T08:57:08.497Z,100754.38
2023-12-08T09:00:13.563Z,100732.19
2023-12-08T09:03:15.609Z,100762.53
2023-12-08T09:06:17.590Z,100785.13
2023-12-08T09:09:19.508Z,100786.22
2023-12-08T09:12:21.319Z,100783.88
2023-12-08T09:15:23.386Z,100789.44
2023-12-08T09:18:25.348Z,100789.19
2023-12-08T09:21:27.197Z,100792.72
2023-12-08T09:24:29.026Z,100779.75
2023-12-08T09:27:30.854Z,100782.31
2023-12-08T09:30:32.957Z,100774.81
2023-12-08T09:33:34.920Z,100764.94
2023-12-08T09:36:37.273Z,100765.97
2023-12-08T09:39:39.464Z,100768.47
2023-12-08T09:42:46.828Z,100761.84
2023-12-08T09:45:49.286Z,100763.47
2023-12-08T09:48:57.189Z,100745.00
2023-12-08T09:52:00.760Z,100741.56
2023-12-08T09:55:04.556Z,100746.81
2023-12-08T09:58:08.487Z,100735.13
2023-12-08T10:01:14.604Z,100724.88
2023-12-08T10:04:16.998Z,100732.28
2023-12-08T10:07:21.438Z,100735.91
2023-12-08T10:10:25.431Z,100733.47
2023-12-08T10:13:27.342Z,100726.38
2023-12-08T10:16:29.145Z,100732.66
2023-12-08T10:19:31.054Z,100721.66
2023-12-08T10:22:43.455Z,100722.69
2023-12-08T10:25:48.230Z,100717.91
2023-12-08T10:28:55.304Z,100711.63
2023-12-08T10:31:58.996Z,100712.31
2023-12-08T10:35:00.910Z,100715.69
2023-12-08T10:38:03.398Z,100717.50
2023-12-08T10:41:06.212Z,100718.53
2023-12-08T10:44:09.852Z,100715.00
2023-12-08T10:47:11.645Z,100706.09
2023-12-08T10:50:14.155Z,100708.50
2023-12-08T10:53:17.947Z,100702.13
2023-12-08T10:56:22.730Z,100704.53
2023-12-08T10:59:32.632Z,100700.50
2023-12-08T11:02:36.592Z,100689.31
2023-12-08T11:05:49.253Z,100686.50
2023-12-08T11:08:57.380Z,100684.00
2023-12-08T11:12:04.585Z,100680.41
2023-12-08T11:15:17.475Z,100681.09
2023-12-08T11:18:28.286Z,100682.78
2023-12-08T11:21:30.744Z,100686.84
2023-12-08T11:24:32.859Z,100684.09
2023-12-08T11:27:45.266Z,100675.75
2023-12-08T11:30:58.984Z,100675.41
2023-12-08T11:34:14.918Z,100671.81
2023-12-08T11:37:17.776Z,100665.53
2023-12-08T11:40:19.717Z,100663.03
2023-12-08T11:43:21.771Z,100667.50
2023-12-08T11:46:23.537Z,100673.34
2023-12-08T11:49:26.167Z,100671.47
2023-12-08T11:52:30.355Z,100670.75
2023-12-08T11:55:35.903Z,100658.91
2023-12-08T11:58:40.642Z,100651.69
2023-12-08T12:01:43.932Z,100654.97
2023-12-08T12:04:45.772Z,100657.38
2023-12-08T12:07:52.350Z,100663.13
2023-12-08T12:11:02.262Z,100669.16
2023-12-08T12:14:08.683Z,100667.59
2023-12-08T12:17:13.958Z,100660.56
2023-12-08T12:20:15.976Z,100667.06
2023-12-08T12:23:20.390Z,100664.25
2023-12-08T12:26:22.444Z,100670.25
2023-12-08T12:29:24.907Z,100678.66
2023-12-08T12:32:27.515Z,100678.31
2023-12-08T12:35:29.348Z,100666.66
2023-12-08T12:38:31.204Z,100670.69
2023-12-08T12:41:33.078Z,100664.31
2023-12-08T12:44:46.963Z,100662.88
2023-12-08T12:47:49.018Z,100657.63
2023-12-08T12:50:55.819Z,100645.69
2023-12-08T12:53:57.698Z,100641.66
2023-12-08T12:57:00.905Z,100651.19
2023-12-08T13:00:03.540Z,100650.84
2023-12-08T13:03:13.721Z,100650.69
2023-12-08T13:06:30.302Z,100650.59
2023-12-08T13:09:33.652Z,100660.63
2023-12-08T13:12:36.163Z,100653.91
2023-12-08T13:15:37.949Z,100654.38
2023-12-08T13:18:49.960Z,100642.63
2023-12-08T13:21:51.832Z,100645.00
2023-12-08T13:24:54.056Z,100639.94
2023-12-08T13:27:55.883Z,100637.97
2023-12-08T13:30:57.662Z,100642.50
2023-12-08T13:33:59.792Z,100635.88
2023-12-08T13:37:03.367Z,100641.81
2023-12-08T13:40:06.027Z,100631.59
2023-12-08T13:43:07.857Z,100632.81
2023-12-08T13:46:09.751Z,100634.50
2023-12-08T13:49:11.696Z,100634.38
2023-12-08T13:52:13.957Z,100636.22
2023-12-08T13:55:15.785Z,100637.19
2023-12-08T13:58:17.638Z,100637.22
2023-12-08T14:01:20.574Z,100636.81
2023-12-08T14:04:22.609Z,100629.00
2023-12-08T14:07:26.736Z,100636.97
2023-12-08T14:10:28.741Z,100634.09
2023-12-08T14:13:30.566Z,100638.13
2023-12-08T14:16:32.444Z,100636.47
2023-12-08T14:19:34.410Z,100633.56
2023-12-08T14:22:36.350Z,100630.34
2023-12-08T14:25:38.188Z,100629.59
2023-12-08T14:28:39.964Z,100634.16
2023-12-08T14:31:41.743Z,100626.38
2023-12-08T14:34:43.755Z,100634.91
2023-12-08T14:37:46.221Z,100633.16
2023-12-08T14:40:50.036Z,100642.59
2023-12-08T14:43:52.084Z,100646.22
2023-12-08T14:46:53.893Z,100649.56
2023-12-08T14:49:55.793Z,100661.69
2023-12-08T14:52:57.909Z,100666.53
2023-12-08T14:56:00.525Z,100670.69
2023-12-08T14:59:02.459Z,100680.94
2023-12-08T15:02:04.770Z,100693.16
2023-12-08T15:05:07.400Z,100686.50
2023-12-08T15:08:09.185Z,100690.97
2023-12-08T15:11:11.342Z,100681.19
2023-12-08T15:14:13.157Z,100672.19
2023-12-08T15:17:14.925Z,100677.06
2023-12-08T15:20:16.693Z,100681.25
2023-12-08T15:23:19.501Z,100685.66
2023-12-08T15:26:21.814Z,100686.69
2023-12-08T15:29:23.606Z,100693.84
2023-12-08T15:32:25.395Z,100688.03
2023-12-08T15:35:27.191Z,100686.81
2023-12-08T15:38:29.019Z,100691.19
2023-12-08T15:41:30.856Z,100681.38
2023-12-08T15:44:32.662Z,100690.25
2023-12-08T15:47:34.691Z,100681.38
2023-12-08T15:50:38.839Z,100682.91
2023-12-08T15:53:43.786Z,100688.03
2023-12-08T15:56:45.804Z,100690.25
2023-12-08T15:59:47.696Z,100693.66
2023-12-08T16:02:49.549Z,100706.78
2023-12-08T16:05:51.468Z,100702.22
2023-12-08T16:08:54.165Z,100692.22
2023-12-08T16:11:56.153Z,100699.41
2023-12-08T16:14:58.032Z,100699.75
2023-12-08T16:18:01.171Z,100700.59
2023-12-08T16:21:03.388Z,100704.44
2023-12-08T16:24:05.641Z,100701.78
2023-12-08T16:27:09.619Z,100709.13
2023-12-08T16:30:12.319Z,100701.69
2023-12-08T16:33:14.314Z,100699.75
2023-12-08T16:36:16.260Z,100696.63
2023-12-08T16:39:19.469Z,100703.16
2023-12-08T16:42:21.726Z,100699.34
2023-12-08T16:45:23.653Z,100700.50
2023-12-08T16:48:26.176Z,100714.81
2023-12-08T16:51:28.115Z,100715.34
2023-12-08T16:54:30.156Z,100719.88
2023-12-08T16:57:32.128Z,100718.69
2023-12-08T17:00:33.984Z,100724.25
2023-12-08T17:03:35.914Z,100724.19
2023-12-08T17:06:37.848Z,100725.91
2023-12-08T17:09:39.759Z,100727.75
2023-12-08T17:12:41.546Z,100725.91
2023-12-08T17:15:43.639Z,100731.72
2023-12-08T17:18:45.625Z,100735.25
2023-12-08T17:21:48.245Z,100737.66
2023-12-08T17:24:50.149Z,100747.03
2023-12-08T17:27:51.985Z,100751.13
2023-12-08T17:30:54.818Z,100748.53
2023-12-08T17:34:04.753Z,100745.75
2023-12-08T17:37:15.025Z,100753.38
2023-12-08T17:40:16.865Z,100756.97
2023-12-08T17:43:18.688Z,100748.13
2023-12-08T17:46:20.633Z,100749.06
2023-12-08T17:49:22.516Z,100753.19
2023-12-08T17:52:25.078Z,100752.78
2023-12-08T17:55:27.339Z,100754.16
2023-12-08T17:58:29.084Z,100762.09
2023-12-08T18:01:30.949Z,100753.31
2023-12-08T18:04:32.733Z,100757.97
2023-12-08T18:07:35.059Z,100755.78
2023-12-08T18:10:36.881Z,100743.22
2023-12-08T18:13:38.707Z,100749.06
2023-12-08T18:16:48.265Z,100748.41
2023-12-08T18:19:52.192Z,100744.53
2023-12-08T18:22:54.013Z,100752.72
2023-12-08T18:25:55.847Z,100749.78
2023-12-08T18:29:08.232Z,100760.75
2023-12-08T18:32:11.681Z,100757.09
2023-12-08T18:35:13.446Z,100760.25
2023-12-08T18:38:15.176Z,100764.81
2023-12-08T18:41:17.880Z,100768.50
2023-12-08T18:44:19.932Z,100765.06
2023-12-08T18:47:22.055Z,100761.25
2023-12-08T18:50:24.109Z,100764.13
2023-12-08T18:53:26.153Z,100771.59
2023-12-08T18:56:28.038Z,100775.38
2023-12-08T18:59:30.117Z,100772.59
2023-12-08T19:02:32.028Z,100768.72
2023-12-08T19:05:36.765Z,100772.06
2023-12-08T19:08:38.563Z,100767.72
2023-12-08T19:11:40.512Z,100770.22
2023-12-08T19:14:42.389Z,100773.03
2023-12-08T19:17:44.321Z,100782.22
2023-12-08T19:20:47.795Z,100774.81
2023-12-08T19:23:49.646Z,100775.25
2023-12-08T19:26:52.909Z,100772.94
2023-12-08T19:29:54.744Z,100781.22
2023-12-08T19:32:56.648Z,100774.91
2023-12-08T19:35:58.658Z,100774.91
2023-12-08T19:39:01.111Z,100773.09
2023-12-08T19:42:03.713Z,100779.25
2023-12-08T19:45:06.664Z,100782.56
2023-12-08T19:48:08.651Z,100776.19
2023-12-08T19:51:10.548Z,100780.91
2023-12-08T19:54:12.512Z,100783.63
2023-12-08T19:57:16.248Z,100790.94
2023-12-08T20:00:18.634Z,100789.88
2023-12-08T20:03:20.604Z,100793.75
2023-12-08T20:06:23.083Z,100793.88
2023-12-08T20:09:24.970Z,100796.31
2023-12-08T20:12:28.151Z,100802.44
2023-12-08T20:15:29.990Z,100803.16
2023-12-08T20:18:31.908Z,100806.31
2023-12-08T20:21:33.845Z,100808.91
2023-12-08T20:24:38.032Z,100810.19
2023-12-08T20:27:39.850Z,100803.28
2023-12-08T20:30:41.834Z,100799.56
2023-12-08T20:33:43.768Z,100795.13
2023-12-08T20:36:50.102Z,100795.63
2023-12-08T20:39:51.873Z,100792.47
2023-12-08T20:42:53.643Z,100790.03
2023-12-08T20:45:59.739Z,100801.00
2023-12-08T20:49:01.658Z,100797.16
2023-12-08T20:52:04.418Z,100797.50
2023-12-08T20:55:06.288Z,100793.13
2023-12-08T20:58:08.108Z,100794.41
2023-12-08T21:01:10.977Z,100793.91
2023-12-08T21:04:12.903Z,100786.22
2023-12-08T21:07:14.913Z,100799.16
2023-12-08T21:10:16.731Z,100801.09
2023-12-08T21:13:19.322Z,100802.47
2023-12-08T21:16:23.420Z,100802.72
2023-12-08T21:19:26.114Z,100804.66
2023-12-08T21:22:28.445Z,100808.19
2023-12-08T21:25:31.421Z,100816.94
2023-12-08T21:28:33.207Z,100809.69
2023-12-08T21:31:34.995Z,100817.81
2023-12-08T21:34:36.975Z,100814.44
2023-12-08T21:37:39.704Z,100813.63
2023-12-08T21:40:41.534Z,100816.94
2023-12-08T21:43:43.304Z,100810.91
2023-12-08T21:46:45.159Z,100816.94
2023-12-08T21:49:46.983Z,100812.34
2023-12-08T21:52:51.685Z,100820.81
2023-12-08T21:55:54.977Z,100828.72
2023-12-08T21:58:56.769Z,100821.59
2023-12-08T22:01:58.601Z,100828.00
2023-12-08T22:05:00.428Z,100827.44
2023-12-08T22:08:02.282Z,100829.56
2023-12-08T22:11:04.319Z,100827.91
2023-12-08T22:14:06.150Z,100825.78
2023-12-08T22:17:07.945Z,100830.00
2023-12-08T22:20:10.086Z,100829.00
2023-12-08T22:23:11.922Z,100821.25
2023-12-08T22:26:13.948Z,100826.91
2023-12-08T22:29:15.769Z,100824.06
2023-12-08T22:32:17.661Z,100826.72
2023-12-08T22:35:19.400Z,100832.56
2023-12-08T22:38:21.631Z,100827.13
2023-12-08T22:41:23.430Z,100829.63
2023-12-08T22:44:25.375Z,100823.25
2023-12-08T22:47:27.484Z,100817.00
2023-12-08T22:50:38.700Z,100826.34
2023-12-08T22:53:48.084Z,100813.16
2023-12-08T22:56:50.101Z,100821.53
2023-12-08T22:59:52.230Z,100809.91
2023-12-08T23:02:55.097Z,100813.63
2023-12-08T23:05:56.946Z,100812.56
2023-12-08T23:08:58.797Z,100812.69
2023-12-08T23:12:00.687Z,100806.31
2023-12-08T23:15:04.449Z,100803.00
2023-12-08T23:18:06.398Z,100804.81
2023-12-08T23:21:08.277Z,100812.50
2023-12-08T23:24:10.250Z,100805.72
2023-12-08T23:27:12.601Z,100811.69
2023-12-08T23:30:15.273Z,100816.50
2023-12-08T23:33:17.240Z,100810.50
2023-12-08T23:36:19.727Z,100815.56
2023-12-08T23:39:21.533Z,100814.75
2023-12-08T23:42:23.730Z,100810.78
2023-12-08T23:45:25.726Z,100807.84
2023-12-08T23:48:27.687Z,100812.56
2023-12-08T23:51:29.618Z,100813.88
2023-12-08T23:54:31.464Z,100811.63
2023-12-08T23:57:33.353Z,100809.84
